Time;durP1;ratioP1;P1;durP2;ratioP2;P2;SDS_P1;SDS_P2;PMS_P1;PMS_P2;Temp;Humidity;BMP_temperature;BMP_pressure;BME280_temperature;BME280_humidity;BME280_pressure;Samples;Min_cycle;Max_cycle;Signal;HPM_P1;HPM_P2
2021/08/18 00:00:07;;;;;;;23.23;16.40;;;;;;;13.90;100.00;100212.00;5015997;28;20046;-72
2021/08/18 00:02:34;;;;;;;23.08;17.63;;;;;;;13.89;100.00;100202.25;5014798;28;20045;-71
2021/08/18 00:05:01;;;;;;;23.90;17.38;;;;;;;13.90;100.00;100206.63;5016084;28;20495;-70
2021/08/18 00:07:29;;;;;;;23.63;18.38;;;;;;;13.86;100.00;100210.53;5014860;28;20346;-71
2021/08/18 00:09:56;;;;;;;27.42;18.38;;;;;;;13.88;100.00;100208.59;5013793;28;20044;-71
2021/08/18 00:12:23;;;;;;;23.88;18.38;;;;;;;13.89;100.00;100207.63;5014664;28;20054;-71
2021/08/18 00:14:50;;;;;;;28.58;18.92;;;;;;;13.88;100.00;100203.22;5015864;28;20330;-71
2021/08/18 00:17:18;;;;;;;28.50;19.55;;;;;;;13.87;100.00;100196.16;5014819;28;20062;-71
2021/08/18 00:19:45;;;;;;;30.25;20.33;;;;;;;13.89;100.00;100204.94;5014617;28;20077;-71
2021/08/18 00:22:12;;;;;;;26.20;20.50;;;;;;;13.93;100.00;100205.56;5014537;28;20096;-71
2021/08/18 00:24:39;;;;;;;27.20;20.67;;;;;;;13.92;100.00;100204.72;5015663;28;20125;-72
2021/08/18 00:27:07;;;;;;;27.70;19.98;;;;;;;13.94;100.00;100202.75;5016069;28;20100;-70
2021/08/18 00:29:39;;;;;;;28.35;20.88;;;;;;;13.94;100.00;100199.25;5014212;28;20104;-71
2021/08/18 00:32:06;;;;;;;27.33;20.38;;;;;;;13.86;100.00;100191.75;5014436;28;20046;-71
2021/08/18 00:34:33;;;;;;;29.67;19.92;;;;;;;13.87;100.00;100206.00;5014209;28;20180;-72
2021/08/18 00:37:00;;;;;;;31.95;20.58;;;;;;;13.82;100.00;100192.94;5015494;28;20053;-72
2021/08/18 00:39:27;;;;;;;27.25;19.85;;;;;;;13.76;100.00;100179.97;5015328;28;20148;-72
2021/08/18 00:41:55;;;;;;;26.15;20.33;;;;;;;13.88;100.00;100197.00;5014362;28;20049;-70
2021/08/18 00:44:21;;;;;;;30.40;21.00;;;;;;;13.87;100.00;100195.28;5015385;28;20046;-70
2021/08/18 00:46:58;;;;;;;31.88;20.73;;;;;;;13.87;100.00;100196.16;5015362;28;20099;-72
2021/08/18 00:49:26;;;;;;;29.02;20.15;;;;;;;13.91;100.00;100192.28;5015268;28;20041;-71
2021/08/18 00:51:54;;;;;;;28.70;20.23;;;;;;;13.89;100.00;100198.72;5030603;28;20045;-71
2021/08/18 00:54:22;;;;;;;26.50;19.75;;;;;;;13.90;100.00;100190.53;5015164;28;20042;-71
2021/08/18 00:56:49;;;;;;;24.50;18.70;;;;;;;13.88;100.00;100187.13;5014182;28;20427;-71
2021/08/18 00:59:16;;;;;;;30.90;20.77;;;;;;;13.84;100.00;100185.66;5015058;28;20352;-71
2021/08/18 01:01:43;;;;;;;32.65;19.65;;;;;;;13.85;100.00;100193.56;5015237;28;20116;-71
2021/08/18 01:04:12;;;;;;;26.17;19.13;;;;;;;13.86;100.00;100189.06;5014970;28;20446;-71
2021/08/18 01:06:42;;;;;;;29.35;20.50;;;;;;;13.89;100.00;100186.16;5015051;28;20121;-71
2021/08/18 01:09:12;;;;;;;35.25;21.60;;;;;;;13.89;100.00;100186.16;5014913;28;20049;-71
2021/08/18 01:11:41;;;;;;;33.58;21.15;;;;;;;13.94;100.00;100186.66;5015277;28;20434;-72
2021/08/18 01:14:08;;;;;;;28.13;20.60;;;;;;;13.96;100.00;100190.09;5013608;28;20041;-71
2021/08/18 01:16:42;;;;;;;28.65;20.65;;;;;;;13.95;100.00;100187.53;5014927;28;20049;-71
2021/08/18 01:19:10;;;;;;;29.30;21.75;;;;;;;13.91;100.00;100181.53;5014905;28;20070;-72
2021/08/18 01:21:40;;;;;;;31.67;20.55;;;;;;;13.96;100.00;100190.09;5014734;28;20054;-71
2021/08/18 01:24:09;;;;;;;30.25;20.92;;;;;;;13.90;100.00;100179.81;5014754;28;20366;-72
2021/08/18 01:26:37;;;;;;;33.00;22.55;;;;;;;13.92;100.00;100177.00;5014988;28;20042;-72
2021/08/18 01:29:05;;;;;;;32.42;22.50;;;;;;;13.95;100.00;100191.06;5014827;28;20046;-72
2021/08/18 01:31:32;;;;;;;32.90;22.67;;;;;;;13.97;100.00;100190.94;5017514;28;20038;-71
2021/08/18 01:34:01;;;;;;;33.05;23.27;;;;;;;13.97;100.00;100194.50;5018846;28;20060;-72
2021/08/18 01:36:29;;;;;;;31.80;23.20;;;;;;;13.95;100.00;100193.75;5017676;28;20347;-71
2021/08/18 01:39:08;;;;;;;32.92;22.52;;;;;;;13.96;100.00;100187.41;5018774;28;20089;-72
2021/08/18 01:41:36;;;;;;;36.40;24.33;;;;;;;13.95;100.00;100185.69;5018545;28;20446;-71
2021/08/18 01:44:03;;;;;;;32.80;24.10;;;;;;;13.95;100.00;100188.38;5017539;28;20359;-70
2021/08/18 01:46:29;;;;;;;36.80;23.60;;;;;;;13.99;100.00;100178.25;5018526;28;20046;-70
2021/08/18 01:48:58;;;;;;;33.60;24.50;;;;;;;13.87;100.00;100172.00;5018532;28;20512;-71
2021/08/18 01:51:25;;;;;;;36.70;24.88;;;;;;;13.96;100.00;100184.72;5018483;28;20053;-70
2021/08/18 01:53:51;;;;;;;39.60;23.77;;;;;;;13.90;100.00;100169.06;5017397;28;20077;-72
2021/08/18 01:56:18;;;;;;;34.85;23.65;;;;;;;13.98;100.00;100187.28;5017259;28;20034;-72
2021/08/18 01:58:48;;;;;;;35.83;24.10;;;;;;;13.99;100.00;100191.69;5017037;28;20050;-71
2021/08/18 02:01:16;;;;;;;41.25;26.40;;;;;;;13.99;100.00;100191.69;5017251;28;20054;-72
2021/08/18 02:03:43;;;;;;;36.05;25.83;;;;;;;13.95;100.00;100184.84;5018307;28;20057;-71
2021/08/18 02:06:11;;;;;;;43.10;25.92;;;;;;;13.95;100.00;100188.38;5018597;28;20382;-71
2021/08/18 02:08:39;;;;;;;39.33;26.90;;;;;;;13.94;100.00;100192.03;5017371;28;20299;-71
2021/08/18 02:11:06;;;;;;;35.75;25.80;;;;;;;13.98;100.00;100192.66;5016971;28;20104;-71
2021/08/18 02:13:33;;;;;;;38.55;25.73;;;;;;;14.01;100.00;100192.44;5018372;28;20049;-71
2021/08/18 02:16:00;;;;;;;35.63;25.23;;;;;;;14.00;100.00;100185.34;5017945;28;20454;-70
2021/08/18 02:18:27;;;;;;;38.80;26.60;;;;;;;14.01;100.00;100187.06;5017886;28;20042;-71
2021/08/18 02:20:54;;;;;;;38.45;26.63;;;;;;;13.99;100.00;100184.50;5018071;28;20042;-72
2021/08/18 02:23:21;;;;;;;39.95;26.23;;;;;;;13.94;100.00;100178.63;5018069;28;20045;-70
2021/08/18 02:25:49;;;;;;;38.42;27.65;;;;;;;14.01;100.00;100192.44;5017679;28;20118;-71
2021/08/18 02:28:16;;;;;;;39.92;28.48;;;;;;;14.03;100.00;100187.81;5017894;28;20128;-71
2021/08/18 02:30:43;;;;;;;43.22;30.50;;;;;;;14.03;100.00;100192.31;5018145;28;20391;-72
2021/08/18 02:33:10;;;;;;;44.22;30.48;;;;;;;14.06;100.00;100194.78;5017792;28;20050;-72
2021/08/18 02:35:38;;;;;;;49.20;32.17;;;;;;;14.04;100.00;100196.69;5017723;28;20042;-71
2021/08/18 02:38:05;;;;;;;50.03;31.73;;;;;;;14.04;100.00;100185.97;5017764;28;20045;-71
2021/08/18 02:40:32;;;;;;;48.22;31.92;;;;;;;14.04;100.00;100194.88;5017634;28;20046;-70
2021/08/18 02:42:59;;;;;;;52.92;32.85;;;;;;;14.00;100.00;100188.03;5015454;28;20053;-71
2021/08/18 02:45:27;;;;;;;52.22;32.88;;;;;;;14.05;100.00;100193.06;5017520;28;20431;-70
2021/08/18 02:47:54;;;;;;;47.08;32.47;;;;;;;14.02;100.00;100187.91;5017453;28;20042;-71
2021/08/18 02:50:23;;;;;;;49.22;33.20;;;;;;;14.06;100.00;100192.09;5017432;28;20050;-71
2021/08/18 02:52:50;;;;;;;46.97;31.90;;;;;;;14.07;100.00;100191.13;5017308;28;20100;-71
2021/08/18 02:55:17;;;;;;;47.42;30.98;;;;;;;14.10;100.00;100191.75;5016166;28;20316;-71
2021/08/18 02:57:44;;;;;;;46.47;31.90;;;;;;;14.10;100.00;100185.50;5016098;28;20497;-71
2021/08/18 03:00:11;;;;;;;45.70;29.90;;;;;;;14.06;100.00;100184.03;5017285;28;20046;-71
2021/08/18 03:02:39;;;;;;;42.63;29.27;;;;;;;14.14;100.00;100184.31;5016341;28;20050;-70
2021/08/18 03:05:07;;;;;;;43.63;29.83;;;;;;;14.13;100.00;100190.66;5017289;28;20423;-71
2021/08/18 03:07:34;;;;;;;42.60;29.25;;;;;;;14.10;100.00;100188.19;5016931;28;20050;-72
2021/08/18 03:10:00;;;;;;;43.30;29.67;;;;;;;14.11;100.00;100196.13;5017076;28;20053;-71
2021/08/18 03:12:27;;;;;;;40.97;28.52;;;;;;;14.13;100.00;100196.03;5016893;28;20050;-71
2021/08/18 03:14:54;;;;;;;44.63;27.50;;;;;;;14.13;100.00;100191.50;5016939;28;20041;-71
2021/08/18 03:17:21;;;;;;;46.75;29.48;;;;;;;14.02;100.00;100174.50;5017056;28;20041;-70
2021/08/18 03:19:48;;;;;;;43.17;29.27;;;;;;;14.09;100.00;100189.16;5016866;28;20099;-71
2021/08/18 03:22:15;;;;;;;41.88;29.05;;;;;;;14.08;100.00;100182.09;5016547;28;20053;-70
2021/08/18 03:24:42;;;;;;;38.95;28.67;;;;;;;14.16;100.00;100182.34;5016710;28;20038;-72
2021/08/18 03:27:09;;;;;;;38.20;28.63;;;;;;;14.14;100.00;100192.38;4999351;28;20052;-72
2021/08/18 03:29:36;;;;;;;41.45;29.40;;;;;;;14.17;100.00;100188.59;5015646;28;20042;-71
2021/08/18 03:32:03;;;;;;;40.80;28.92;;;;;;;14.14;100.00;100189.69;5016703;28;20041;-71
2021/08/18 03:34:30;;;;;;;42.10;29.20;;;;;;;14.13;100.00;100185.28;5016429;28;20046;-71
2021/08/18 03:36:56;;;;;;;46.95;29.15;;;;;;;14.17;100.00;100191.28;5015288;28;20053;-71
2021/08/18 03:39:24;;;;;;;43.25;29.38;;;;;;;14.18;100.00;100190.31;5016446;28;20049;-72
2021/08/18 03:41:50;;;;;;;45.65;29.17;;;;;;;14.23;100.00;100196.19;4999259;28;20049;-71
2021/08/18 03:44:17;;;;;;;39.67;29.00;;;;;;;14.16;100.00;100198.47;5016363;28;20435;-70
2021/08/18 03:46:44;;;;;;;38.40;28.60;;;;;;;14.20;100.00;100191.91;5015032;28;20046;-70
2021/08/18 03:49:11;;;;;;;37.33;27.20;;;;;;;14.21;100.00;100196.28;5016539;28;20647;-71
2021/08/18 03:51:37;;;;;;;39.15;28.00;;;;;;;14.21;100.00;100196.28;5015886;28;20477;-70
2021/08/18 03:54:04;;;;;;;33.90;26.85;;;;;;;14.24;100.00;100190.72;5014996;28;20100;-70
2021/08/18 03:56:31;;;;;;;37.95;27.23;;;;;;;14.25;100.00;100192.41;5015830;28;20037;-70
2021/08/18 03:58:58;;;;;;;38.67;27.88;;;;;;;14.21;100.00;100195.41;5015874;28;20038;-70
2021/08/18 04:01:24;;;;;;;40.08;29.60;;;;;;;14.21;100.00;100195.41;5016365;28;20450;-70
2021/08/18 04:03:51;;;;;;;37.47;27.60;;;;;;;14.21;100.00;100193.59;5016089;28;20155;-70
2021/08/18 04:06:18;;;;;;;42.25;27.95;;;;;;;14.20;100.00;100191.03;5016147;28;20053;-70
2021/08/18 04:08:45;;;;;;;44.60;28.63;;;;;;;14.25;100.00;100200.47;5015960;28;20628;-70
2021/08/18 04:11:12;;;;;;;39.30;28.70;;;;;;;14.22;100.00;100195.31;5015869;28;20316;-69
2021/08/18 04:13:38;;;;;;;41.42;29.23;;;;;;;14.25;100.00;100189.72;5015707;28;20160;-71
2021/08/18 04:16:05;;;;;;;39.20;28.08;;;;;;;14.20;100.00;100181.16;5015826;28;20042;-71
2021/08/18 04:18:32;;;;;;;39.25;27.85;;;;;;;14.27;100.00;100197.63;5015474;28;20120;-71
2021/08/18 04:20:59;;;;;;;39.40;27.33;;;;;;;14.26;100.00;100191.44;5011468;28;20034;-70
2021/08/18 04:23:26;;;;;;;39.78;26.90;;;;;;;14.25;100.00;100184.34;4996100;28;20068;-70
2021/08/18 04:25:53;;;;;;;36.42;26.42;;;;;;;14.26;100.00;100182.50;5011074;28;20041;-70
2021/08/18 04:28:20;;;;;;;37.83;27.27;;;;;;;14.26;100.00;100191.44;5014879;28;20045;-72
2021/08/18 04:30:47;;;;;;;42.25;25.67;;;;;;;14.23;100.00;100191.66;5013877;28;20076;-71
2021/08/18 04:33:14;;;;;;;37.97;26.73;;;;;;;14.24;100.00;100197.88;5015491;28;20121;-70
2021/08/18 04:35:41;;;;;;;33.63;24.80;;;;;;;14.25;100.00;100191.53;5015199;28;20053;-70
2021/08/18 04:38:08;;;;;;;35.45;25.48;;;;;;;14.29;100.00;100190.34;5014447;28;20073;-69
2021/08/18 04:40:34;;;;;;;37.63;24.35;;;;;;;14.31;100.00;100198.25;5015259;28;20049;-69
2021/08/18 04:43:01;;;;;;;33.78;24.45;;;;;;;14.28;100.00;100190.47;5014212;28;20423;-75
2021/08/18 04:45:28;;;;;;;37.45;25.52;;;;;;;14.29;100.00;100187.66;5046697;28;20045;-74
2021/08/18 04:47:55;;;;;;;40.97;25.45;;;;;;;14.23;100.00;100186.28;5014911;28;20099;-71
2021/08/18 04:50:22;;;;;;;37.58;25.73;;;;;;;14.28;100.00;100190.47;5015230;28;20128;-73
2021/08/18 04:52:49;;;;;;;35.42;24.98;;;;;;;14.34;100.00;100195.34;5013900;28;20049;-70
2021/08/18 04:55:17;;;;;;;36.13;25.85;;;;;;;14.34;100.00;100196.19;5014258;28;20053;-71
2021/08/18 04:57:43;;;;;;;38.38;25.63;;;;;;;14.31;100.00;100193.75;5013224;28;20049;-70
2021/08/18 05:00:12;;;;;;;37.45;24.95;;;;;;;14.32;100.00;100194.63;5028523;28;20066;-71
2021/08/18 05:02:40;;;;;;;36.17;24.75;;;;;;;14.31;100.00;100192.91;5007911;28;20129;-70
2021/08/18 05:05:08;;;;;;;32.15;24.13;;;;;;;14.32;100.00;100200.84;5011894;28;20521;-71
2021/08/18 05:07:34;;;;;;;38.35;25.02;;;;;;;14.31;100.00;100190.22;5013859;28;20046;-70
2021/08/18 05:10:02;;;;;;;29.95;23.55;;;;;;;14.35;100.00;100197.06;5013304;28;20053;-70
2021/08/18 05:12:29;;;;;;;34.80;24.15;;;;;;;14.35;100.00;100197.06;5009576;28;20103;-71
2021/08/18 05:14:56;;;;;;;33.30;24.17;;;;;;;14.36;100.00;100196.09;5005798;28;20104;-72
2021/08/18 05:17:23;;;;;;;32.33;23.50;;;;;;;14.37;100.00;100187.06;4996103;28;20043;-72
2021/08/18 05:19:50;;;;;;;32.30;22.63;;;;;;;14.42;100.00;100189.41;5014638;28;20061;-72
2021/08/18 05:22:16;;;;;;;28.98;21.88;;;;;;;14.43;100.00;100193.81;5014438;28;20275;-71
2021/08/18 05:24:43;;;;;;;32.47;20.98;;;;;;;14.45;100.00;100192.72;5009873;28;20034;-70
2021/08/18 05:27:10;;;;;;;32.65;21.17;;;;;;;14.42;100.00;100195.63;4999168;28;20297;-72
2021/08/18 05:29:37;;;;;;;30.60;21.83;;;;;;;14.44;100.00;100190.97;5014522;28;20056;-72
2021/08/18 05:32:04;;;;;;;34.83;21.52;;;;;;;14.46;100.00;100197.09;5014665;28;20112;-72
2021/08/18 05:34:31;;;;;;;30.08;21.63;;;;;;;14.44;100.00;100192.81;5003626;28;20038;-76
2021/08/18 05:36:58;;;;;;;32.13;22.75;;;;;;;14.40;100.00;100187.69;5004477;28;20046;-76
2021/08/18 05:39:24;;;;;;;29.17;22.08;;;;;;;14.41;100.00;100193.91;5010448;28;20407;-77
2021/08/18 05:41:51;;;;;;;32.25;23.00;;;;;;;14.47;100.00;100204.19;5029566;28;20060;-74
2021/08/18 05:44:18;;;;;;;30.52;22.23;;;;;;;14.44;100.00;100192.81;5001411;28;20054;-73
2021/08/18 05:46:45;;;;;;;30.80;23.63;;;;;;;14.44;100.00;100212.47;4999756;28;20117;-75
2021/08/18 05:49:20;;;;;;;32.45;22.65;;;;;;;14.43;100.00;100199.19;5002401;28;20076;-73
2021/08/18 05:51:48;;;;;;;32.85;23.63;;;;;;;14.44;100.00;100200.88;4999037;28;20515;-74
2021/08/18 05:54:17;;;;;;;34.20;23.52;;;;;;;14.35;100.00;100184.50;4996765;28;20043;-74
2021/08/18 05:56:44;;;;;;;34.25;23.70;;;;;;;14.41;100.00;100193.91;4996613;28;20312;-74
2021/08/18 05:59:11;;;;;;;34.50;23.33;;;;;;;14.41;100.00;100199.28;5008212;28;20069;-74
2021/08/18 06:01:37;;;;;;;35.53;23.98;;;;;;;14.41;100.00;100210.03;5014264;28;20168;-77
2021/08/18 06:04:04;;;;;;;38.55;23.73;;;;;;;14.44;100.00;100199.03;5001317;28;20058;-76
2021/08/18 06:06:31;;;;;;;31.02;23.17;;;;;;;14.47;100.00;100198.81;5004042;28;20042;-75
2021/08/18 06:08:58;;;;;;;36.35;23.45;;;;;;;14.48;100.00;100205.91;5012105;28;20052;-77
2021/08/18 06:11:26;;;;;;;35.55;24.30;;;;;;;14.48;100.00;100202.34;5014333;28;20045;-80
2021/08/18 06:13:53;;;;;;;37.03;23.83;;;;;;;14.39;100.00;100195.88;5014174;28;20362;-73
2021/08/18 06:16:20;;;;;;;37.25;24.13;;;;;;;14.40;100.00;100200.25;5014419;28;20038;-71
2021/08/18 06:18:48;;;;;;;40.67;24.02;;;;;;;14.40;100.00;100209.16;5010803;28;20421;-73
2021/08/18 06:21:15;;;;;;;37.55;23.65;;;;;;;14.37;100.00;100208.53;5017380;28;20351;-77
2021/08/18 06:23:43;;;;;;;40.28;23.55;;;;;;;14.36;100.00;100201.47;5015597;28;20324;-71
2021/08/18 06:26:10;;;;;;;38.10;24.52;;;;;;;14.35;100.00;100197.06;5014351;28;20052;-71
2021/08/18 06:28:37;;;;;;;40.78;24.10;;;;;;;14.41;100.00;100204.66;5015770;28;20061;-71
2021/08/18 06:31:03;;;;;;;37.45;23.30;;;;;;;14.43;100.00;100205.38;5015847;28;20041;-70
2021/08/18 06:33:30;;;;;;;36.30;23.15;;;;;;;14.44;100.00;100200.88;5016691;28;20061;-70
2021/08/18 06:35:57;;;;;;;35.22;23.88;;;;;;;14.43;100.00;100199.19;5031972;28;20119;-70
2021/08/18 06:38:24;;;;;;;35.90;23.13;;;;;;;14.39;100.00;100187.81;5017199;28;20037;-70
2021/08/18 06:40:51;;;;;;;33.78;22.00;;;;;;;14.48;100.00;100200.53;5017565;28;20042;-70
2021/08/18 06:43:18;;;;;;;37.90;23.17;;;;;;;14.59;100.00;100205.06;5016683;28;20087;-69
2021/08/18 06:45:45;;;;;;;33.70;22.00;;;;;;;14.73;100.00;100197.75;5017354;28;20038;-70
2021/08/18 06:48:11;;;;;;;30.75;20.38;;;;;;;14.75;100.00;100201.22;5017080;28;20092;-70
2021/08/18 06:50:39;;;;;;;27.10;18.75;;;;;;;14.73;100.00;100197.75;5017245;28;20053;-71
2021/08/18 06:53:05;;;;;;;28.33;19.73;;;;;;;14.75;100.00;100199.38;5017275;28;20439;-70
2021/08/18 06:55:34;;;;;;;27.80;18.20;;;;;;;14.74;100.00;100200.38;5017017;28;20042;-69
2021/08/18 06:58:01;;;;;;;28.98;19.05;;;;;;;14.81;100.00;100198.03;5016437;28;20118;-71
2021/08/18 07:00:28;;;;;;;27.90;17.65;;;;;;;14.88;100.00;100201.97;5016844;28;20054;-70
2021/08/18 07:02:55;;;;;;;21.30;15.75;;;;;;;14.82;100.00;100197.06;5016545;28;20501;-71
2021/08/18 07:05:23;;;;;;;24.38;16.38;;;;;;;14.87;100.00;100202.09;5017089;28;20049;-70
2021/08/18 07:07:50;;;;;;;16.98;13.80;;;;;;;14.86;100.00;100197.72;5016856;28;20319;-71
2021/08/18 07:10:17;;;;;;;17.58;14.05;;;;;;;14.82;100.00;100198.91;5016868;28;20045;-69
2021/08/18 07:12:45;;;;;;;18.27;13.40;;;;;;;14.86;100.00;100198.53;5017019;28;20046;-70
2021/08/18 07:15:12;;;;;;;15.82;12.30;;;;;;;14.86;100.00;100205.78;5016840;28;20049;-69
2021/08/18 07:17:39;;;;;;;17.02;12.30;;;;;;;14.89;100.00;100202.81;5016874;28;20115;-70
2021/08/18 07:20:07;;;;;;;13.38;11.43;;;;;;;14.94;100.00;100201.47;5016835;28;20046;-70
2021/08/18 07:22:34;;;;;;;16.63;11.40;;;;;;;15.02;100.00;100205.38;5015680;28;20485;-69
2021/08/18 07:25:00;;;;;;;16.27;10.82;;;;;;;14.94;100.00;100192.56;5016647;28;20481;-69
2021/08/18 07:27:28;;;;;;;20.73;11.52;;;;;;;15.04;100.00;100201.59;5016723;28;20049;-71
2021/08/18 07:29:57;;;;;;;16.02;11.45;;;;;;;15.13;100.00;100200.03;5016010;28;20113;-70
2021/08/18 07:32:25;;;;;;;13.65;11.02;;;;;;;15.14;100.00;100200.88;5015528;28;20046;-71
2021/08/18 07:34:52;;;;;;;11.00;9.57;;;;;;;15.03;100.00;100197.22;4999394;28;20049;-69
2021/08/18 07:37:19;;;;;;;11.90;10.18;;;;;;;15.09;100.00;100201.22;5016425;28;20042;-70
2021/08/18 07:39:46;;;;;;;12.55;9.63;;;;;;;15.01;100.00;100198.31;5016350;28;20350;-68
2021/08/18 07:42:14;;;;;;;10.82;9.40;;;;;;;15.10;100.00;100205.66;5031658;28;20050;-69
2021/08/18 07:44:41;;;;;;;13.57;10.32;;;;;;;14.96;100.00;100192.44;5016859;28;20418;-69
2021/08/18 07:47:08;;;;;;;12.60;10.20;;;;;;;15.06;100.00;100207.72;5016206;28;20354;-70
2021/08/18 07:49:35;;;;;;;15.77;11.95;;;;;;;14.90;100.00;100194.66;5015169;28;20045;-70
2021/08/18 07:52:04;;;;;;;16.20;12.35;;;;;;;14.95;100.00;100213.09;5016420;28;20046;-70
2021/08/18 07:54:31;;;;;;;16.15;12.95;;;;;;;15.02;100.00;100205.38;5016081;28;20046;-70
2021/08/18 07:56:58;;;;;;;17.27;13.02;;;;;;;15.14;100.00;100208.94;5015825;28;20419;-71
2021/08/18 07:59:25;;;;;;;16.25;12.95;;;;;;;15.17;100.00;100214.06;5014875;28;20398;-70
2021/08/18 08:01:52;;;;;;;19.20;13.80;;;;;;;15.18;100.00;100203.22;5014890;28;20045;-69
2021/08/18 08:04:19;;;;;;;17.45;14.07;;;;;;;15.20;100.00;100212.00;5014736;28;20061;-70
2021/08/18 08:06:46;;;;;;;19.52;14.05;;;;;;;15.28;100.00;100210.53;5014805;28;20045;-70
2021/08/18 08:09:13;;;;;;;21.77;16.10;;;;;;;15.39;100.00;100221.28;5014880;28;20049;-71
2021/08/18 08:11:40;;;;;;;23.65;16.33;;;;;;;15.44;100.00;100208.31;5015823;28;20141;-69
2021/08/18 08:14:06;;;;;;;20.48;15.57;;;;;;;15.51;100.00;100218.59;5015843;28;20041;-69
2021/08/18 08:16:33;;;;;;;24.73;17.30;;;;;;;15.56;100.00;100210.97;5014696;28;20045;-70
2021/08/18 08:19:00;;;;;;;24.10;18.17;;;;;;;15.52;100.00;100221.13;5015724;28;20049;-70
2021/08/18 08:21:27;;;;;;;23.48;18.00;;;;;;;15.61;100.00;100220.41;5015620;28;20096;-70
2021/08/18 08:23:54;;;;;;;27.23;18.48;;;;;;;15.76;100.00;100217.44;5014754;28;20493;-70
2021/08/18 08:26:21;;;;;;;23.05;18.35;;;;;;;15.70;100.00;100217.94;5015404;28;20347;-69
2021/08/18 08:28:48;;;;;;;22.58;17.75;;;;;;;15.69;100.00;100211.69;4998165;28;20053;-71
2021/08/18 08:31:15;;;;;;;23.30;17.20;;;;;;;15.70;100.00;100217.94;5015484;28;20081;-69
2021/08/18 08:33:42;;;;;;;25.48;17.85;;;;;;;15.65;100.00;100220.13;5014652;28;20351;-70
2021/08/18 08:36:09;;;;;;;23.50;17.38;;;;;;;15.72;100.00;100224.03;5014433;28;20037;-69
2021/08/18 08:38:36;;;;;;;22.10;18.90;;;;;;;15.73;100.00;100223.06;5015319;28;20042;-70
2021/08/18 08:41:04;;;;;;;21.02;17.95;;;;;;;15.75;100.00;100227.31;5014496;28;20042;-69
2021/08/18 08:43:30;;;;;;;22.17;17.48;;;;;;;15.82;100.00;100230.38;5015267;28;20072;-69
2021/08/18 08:45:57;;;;;;;20.58;17.38;;;;;;;15.77;100.00;100226.34;5015120;28;20112;-70
2021/08/18 08:48:24;;;;;;;23.92;17.60;;;;;;;15.69;100.00;100221.59;5015347;28;20072;-70
2021/08/18 08:50:51;;;;;;;23.98;18.42;;;;;;;15.67;100.00;100229.78;5014290;28;20045;-71
2021/08/18 08:53:18;;;;;;;21.10;17.77;;;;;;;15.80;100.00;100235.00;5015070;28;20096;-70
2021/08/18 08:55:46;;;;;;;22.67;17.30;;;;;;;15.87;100.00;100233.53;5015415;28;20061;-71
2021/08/18 08:58:13;;;;;;;19.42;16.50;;;;;;;15.86;100.00;100223.75;5014911;28;20057;-70
2021/08/18 09:00:39;;;;;;;21.13;15.98;;;;;;;15.93;100.00;100228.66;4997792;28;20100;-69
2021/08/18 09:03:22;;;;;;;17.30;14.43;;;;;;;15.88;100.00;100221.81;5014917;28;20084;-71
2021/08/18 09:05:50;;;;;;;17.17;15.38;;;;;;;16.03;100.00;100226.94;5015116;28;20048;-71
2021/08/18 09:08:19;;;;;;;20.17;15.20;;;;;;;16.05;100.00;100229.47;5013981;28;20046;-71
2021/08/18 09:11:09;;;;;;;19.05;13.40;;;;;;;16.08;100.00;100229.22;4997825;28;20054;-70
2021/08/18 09:13:48;;;;;;;16.42;12.98;;;;;;;16.07;100.00;100225.66;4997486;28;20133;-72
2021/08/18 09:16:18;;;;;;;15.43;12.73;;;;;;;16.13;100.00;100213.56;5014888;28;20057;-71
2021/08/18 09:18:49;;;;;;;15.68;11.95;;;;;;;16.22;100.00;100222.69;5014912;28;20100;-68
2021/08/18 09:21:38;;;;;;;14.98;11.90;;;;;;;16.17;100.00;100225.75;5014884;28;20046;-70
2021/08/18 09:24:18;;;;;;;15.32;11.93;;;;;;;16.11;100.00;100229.81;5014870;28;20378;-70
2021/08/18 09:26:48;;;;;;;13.35;11.43;;;;;;;16.05;100.00;100226.78;5012555;28;20109;-69
2021/08/18 09:29:37;;;;;;;14.68;10.85;;;;;;;15.98;100.00;100221.06;5009429;28;20484;-71
2021/08/18 09:32:26;;;;;;;15.77;11.32;;;;;;;16.06;100.00;100228.50;5018924;28;20052;-69
2021/08/18 09:35:12;;;;;;;14.85;11.40;;;;;;;16.11;100.00;100227.13;4996763;28;20041;-69
2021/08/18 09:37:51;;;;;;;14.43;11.50;;;;;;;16.13;100.00;100235.09;5014591;28;20045;-70
2021/08/18 09:40:24;;;;;;;14.85;10.82;;;;;;;16.14;100.00;100223.34;5014807;28;20128;-71
2021/08/18 09:42:52;;;;;;;13.75;11.07;;;;;;;16.15;100.00;100227.72;5014632;28;20056;-71
2021/08/18 09:45:31;;;;;;;13.90;11.25;;;;;;;16.07;100.00;100225.66;5013242;28;20100;-69
2021/08/18 09:48:19;;;;;;;16.00;11.55;;;;;;;16.00;100.00;100229.84;5013591;28;20050;-70
2021/08/18 09:50:51;;;;;;;14.55;11.27;;;;;;;15.96;100.00;100225.72;5014788;28;20053;-70
2021/08/18 09:53:24;;;;;;;14.52;11.93;;;;;;;15.80;100.00;100210.78;5001300;28;20074;-70
2021/08/18 09:55:57;;;;;;;17.90;13.10;;;;;;;15.89;100.00;100222.66;5018560;28;20049;-70
2021/08/18 09:58:25;;;;;;;16.52;12.93;;;;;;;16.07;100.00;100230.22;5018288;28;20419;-69
2021/08/18 10:00:53;;;;;;;19.05;13.35;;;;;;;16.15;100.00;100233.13;5018366;28;20045;-72
2021/08/18 10:03:21;;;;;;;16.52;13.05;;;;;;;16.24;100.00;100224.25;5017928;28;20091;-69
2021/08/18 10:05:50;;;;;;;16.83;12.45;;;;;;;16.44;100.00;100229.81;5018488;28;20087;-71
2021/08/18 10:08:18;;;;;;;15.57;12.93;;;;;;;16.42;100.00;100224.56;5018172;28;20049;-71
2021/08/18 10:10:47;;;;;;;16.42;12.32;;;;;;;16.39;100.00;100227.50;5018064;28;20069;-70
2021/08/18 10:13:15;;;;;;;13.20;11.40;;;;;;;16.47;100.00;100228.69;5016883;28;20538;-69
2021/08/18 10:15:42;;;;;;;14.98;10.63;;;;;;;16.47;100.00;100232.25;5033566;28;20050;-68
2021/08/18 10:18:10;;;;;;;11.40;10.20;;;;;;;16.50;100.00;100220.38;5018008;28;20111;-70
2021/08/18 10:20:38;;;;;;;12.38;8.82;;;;;;;16.55;100.00;100212.72;5017984;28;20045;-68
2021/08/18 10:23:12;;;;;;;19.00;9.02;;;;;;;16.65;100.00;100219.03;5016833;28;20046;-68
2021/08/18 10:25:50;;;;;;;11.63;8.60;;;;;;;16.61;100.00;100206.81;5018057;28;20045;-69
2021/08/18 10:28:16;;;;;;;11.90;9.07;;;;;;;16.63;100.00;100221.03;5017668;28;20331;-71
2021/08/18 10:30:52;;;;;;;9.20;8.27;;;;;;;16.62;100.00;100213.06;5017940;28;20481;-70
2021/08/18 10:33:53;;;;;;;9.77;8.43;;;;;;;16.57;100.00;100221.53;5029944;28;20129;-70
2021/08/18 10:36:42;;;;;;;13.30;10.55;;;;;;;16.58;100.00;100217.00;5015538;28;20041;-69
2021/08/18 10:39:26;;;;;;;13.77;11.20;;;;;;;16.55;100.00;100208.19;5017531;28;20525;-71
2021/08/18 10:42:04;;;;;;;13.32;11.57;;;;;;;16.61;100.00;100206.81;5017745;28;20356;-69
2021/08/18 10:44:40;;;;;;;12.52;10.88;;;;;;;16.66;100.00;100209.97;5017571;28;20042;-69
2021/08/18 10:47:32;;;;;;;16.90;9.98;;;;;;;16.62;100.00;100213.06;5017696;28;20037;-69
2021/08/18 10:50:11;;;;;;;14.77;10.13;;;;;;;16.62;100.00;100221.97;5017472;28;20053;-70
2021/08/18 10:52:40;;;;;;;12.68;9.40;;;;;;;16.70;100.00;100216.81;5017471;28;20128;-71
2021/08/18 10:55:11;;;;;;;9.65;8.30;;;;;;;16.56;100.00;100212.59;5017434;28;20451;-70
2021/08/18 10:57:40;;;;;;;9.07;7.28;;;;;;;16.46;98.67;100214.38;5017199;28;20112;-69
2021/08/18 11:00:24;;;;;;;7.05;6.35;;;;;;;16.45;100.00;100209.94;5017296;28;20099;-69
2021/08/18 11:03:06;;;;;;;8.95;7.43;;;;;;;16.56;100.00;100207.19;5015264;28;20056;-69
2021/08/18 11:05:36;;;;;;;8.40;7.45;;;;;;;16.64;99.65;100201.16;5017200;28;20054;-70
2021/08/18 11:08:04;;;;;;;11.27;7.63;;;;;;;16.73;99.75;100199.53;5016163;28;20042;-69